sensor_id;sensor_type;location;lat;lon;timestamp;P1;durP1;ratioP1;P2;durP2;ratioP2
74551;SDS011;63025;55.472;38.432;2024-03-02T00:00:19;83.93;;;37.60;;
74551;SDS011;63025;55.472;38.432;2024-03-02T00:02:50;74.45;;;36.13;;
74551;SDS011;63025;55.472;38.432;2024-03-02T00:05:17;78.75;;;37.40;;
74551;SDS011;63025;55.472;38.432;2024-03-02T00:07:45;76.70;;;34.40;;
74551;SDS011;63025;55.472;38.432;2024-03-02T00:10:16;85.38;;;37.60;;
74551;SDS011;63025;55.472;38.432;2024-03-02T00:12:45;80.22;;;36.55;;
74551;SDS011;63025;55.472;38.432;2024-03-02T00:18:09;76.47;;;35.80;;
74551;SDS011;63025;55.472;38.432;2024-03-02T00:20:58;81.35;;;35.88;;
74551;SDS011;63025;55.472;38.432;2024-03-02T00:23:32;82.22;;;37.10;;
74551;SDS011;63025;55.472;38.432;2024-03-02T00:26:00;81.45;;;36.17;;
74551;SDS011;63025;55.472;38.432;2024-03-02T00:28:35;83.18;;;38.28;;
74551;SDS011;63025;55.472;38.432;2024-03-02T00:31:08;79.40;;;35.78;;
74551;SDS011;63025;55.472;38.432;2024-03-02T00:33:44;77.10;;;33.67;;
74551;SDS011;63025;55.472;38.432;2024-03-02T00:36:12;79.35;;;36.17;;
74551;SDS011;63025;55.472;38.432;2024-03-02T00:38:46;83.78;;;36.22;;
74551;SDS011;63025;55.472;38.432;2024-03-02T00:41:21;74.13;;;34.38;;
74551;SDS011;63025;55.472;38.432;2024-03-02T00:46:20;85.68;;;38.17;;
74551;SDS011;63025;55.472;38.432;2024-03-02T00:48:58;85.25;;;37.08;;
74551;SDS011;63025;55.472;38.432;2024-03-02T00:51:27;97.97;;;42.28;;
74551;SDS011;63025;55.472;38.432;2024-03-02T00:53:55;96.63;;;40.10;;
74551;SDS011;63025;55.472;38.432;2024-03-02T00:56:24;95.75;;;42.83;;
74551;SDS011;63025;55.472;38.432;2024-03-02T00:58:50;94.10;;;41.22;;
74551;SDS011;63025;55.472;38.432;2024-03-02T01:01:17;130.13;;;50.95;;
74551;SDS011;63025;55.472;38.432;2024-03-02T01:03:45;111.05;;;45.63;;
74551;SDS011;63025;55.472;38.432;2024-03-02T01:06:11;110.60;;;45.40;;
74551;SDS011;63025;55.472;38.432;2024-03-02T01:08:38;102.07;;;42.50;;
74551;SDS011;63025;55.472;38.432;2024-03-02T01:11:04;110.43;;;46.80;;
74551;SDS011;63025;55.472;38.432;2024-03-02T01:13:30;124.90;;;48.60;;
74551;SDS011;63025;55.472;38.432;2024-03-02T01:15:56;118.80;;;49.08;;
74551;SDS011;63025;55.472;38.432;2024-03-02T01:18:23;108.70;;;44.80;;
74551;SDS011;63025;55.472;38.432;2024-03-02T01:20:49;98.88;;;42.25;;
74551;SDS011;63025;55.472;38.432;2024-03-02T01:23:21;87.97;;;39.03;;
74551;SDS011;63025;55.472;38.432;2024-03-02T01:25:47;81.68;;;36.95;;
74551;SDS011;63025;55.472;38.432;2024-03-02T01:28:13;82.82;;;36.85;;
74551;SDS011;63025;55.472;38.432;2024-03-02T01:30:40;83.82;;;36.33;;
74551;SDS011;63025;55.472;38.432;2024-03-02T01:33:06;84.40;;;36.85;;
74551;SDS011;63025;55.472;38.432;2024-03-02T01:35:32;84.63;;;37.13;;
74551;SDS011;63025;55.472;38.432;2024-03-02T01:37:58;80.22;;;36.13;;
74551;SDS011;63025;55.472;38.432;2024-03-02T01:40:24;84.90;;;36.50;;
74551;SDS011;63025;55.472;38.432;2024-03-02T01:42:54;86.18;;;37.53;;
74551;SDS011;63025;55.472;38.432;2024-03-02T01:45:21;77.82;;;37.47;;
74551;SDS011;63025;55.472;38.432;2024-03-02T01:47:47;78.25;;;37.10;;
74551;SDS011;63025;55.472;38.432;2024-03-02T01:50:13;80.55;;;35.40;;
74551;SDS011;63025;55.472;38.432;2024-03-02T01:52:40;84.20;;;38.55;;
74551;SDS011;63025;55.472;38.432;2024-03-02T01:55:06;87.82;;;37.60;;
74551;SDS011;63025;55.472;38.432;2024-03-02T01:57:33;81.75;;;37.30;;
74551;SDS011;63025;55.472;38.432;2024-03-02T02:00:02;77.93;;;37.60;;
74551;SDS011;63025;55.472;38.432;2024-03-02T02:02:37;72.82;;;34.60;;
74551;SDS011;63025;55.472;38.432;2024-03-02T02:05:03;86.75;;;36.05;;
74551;SDS011;63025;55.472;38.432;2024-03-02T02:07:29;81.25;;;37.22;;
74551;SDS011;63025;55.472;38.432;2024-03-02T02:09:55;82.45;;;38.70;;
74551;SDS011;63025;55.472;38.432;2024-03-02T02:12:21;80.43;;;36.25;;
74551;SDS011;63025;55.472;38.432;2024-03-02T02:14:48;88.70;;;36.78;;
74551;SDS011;63025;55.472;38.432;2024-03-02T02:17:16;80.47;;;36.80;;
74551;SDS011;63025;55.472;38.432;2024-03-02T02:19:42;79.72;;;35.17;;
74551;SDS011;63025;55.472;38.432;2024-03-02T02:22:08;84.00;;;39.22;;
74551;SDS011;63025;55.472;38.432;2024-03-02T02:24:35;88.20;;;39.88;;
74551;SDS011;63025;55.472;38.432;2024-03-02T02:27:01;87.53;;;38.05;;
74551;SDS011;63025;55.472;38.432;2024-03-02T02:29:27;91.93;;;39.70;;
74551;SDS011;63025;55.472;38.432;2024-03-02T02:31:53;91.53;;;40.72;;
74551;SDS011;63025;55.472;38.432;2024-03-02T02:34:19;93.10;;;40.05;;
74551;SDS011;63025;55.472;38.432;2024-03-02T02:36:44;86.45;;;39.38;;
74551;SDS011;63025;55.472;38.432;2024-03-02T02:39:11;88.75;;;39.35;;
74551;SDS011;63025;55.472;38.432;2024-03-02T02:41:41;94.43;;;42.17;;
74551;SDS011;63025;55.472;38.432;2024-03-02T02:44:07;100.22;;;42.97;;
74551;SDS011;63025;55.472;38.432;2024-03-02T02:46:33;94.65;;;42.15;;
74551;SDS011;63025;55.472;38.432;2024-03-02T02:48:58;104.25;;;41.85;;
74551;SDS011;63025;55.472;38.432;2024-03-02T02:51:24;99.07;;;42.17;;
74551;SDS011;63025;55.472;38.432;2024-03-02T02:53:53;88.50;;;40.15;;
74551;SDS011;63025;55.472;38.432;2024-03-02T02:56:19;93.15;;;42.28;;
74551;SDS011;63025;55.472;38.432;2024-03-02T02:58:44;97.53;;;41.97;;
74551;SDS011;63025;55.472;38.432;2024-03-02T03:01:10;97.78;;;42.25;;
74551;SDS011;63025;55.472;38.432;2024-03-02T03:03:36;86.90;;;39.10;;
74551;SDS011;63025;55.472;38.432;2024-03-02T03:06:02;95.57;;;42.17;;
74551;SDS011;63025;55.472;38.432;2024-03-02T03:08:28;93.60;;;41.45;;
74551;SDS011;63025;55.472;38.432;2024-03-02T03:10:54;99.05;;;41.35;;
74551;SDS011;63025;55.472;38.432;2024-03-02T03:13:20;87.03;;;37.75;;
74551;SDS011;63025;55.472;38.432;2024-03-02T03:15:46;100.70;;;43.70;;
74551;SDS011;63025;55.472;38.432;2024-03-02T03:18:11;113.07;;;45.92;;
74551;SDS011;63025;55.472;38.432;2024-03-02T03:20:37;96.20;;;41.38;;
74551;SDS011;63025;55.472;38.432;2024-03-02T03:23:03;112.90;;;47.17;;
74551;SDS011;63025;55.472;38.432;2024-03-02T03:25:29;130.43;;;51.33;;
74551;SDS011;63025;55.472;38.432;2024-03-02T03:27:56;115.18;;;46.42;;
74551;SDS011;63025;55.472;38.432;2024-03-02T03:30:21;121.82;;;50.03;;
74551;SDS011;63025;55.472;38.432;2024-03-02T03:32:47;110.03;;;48.08;;
74551;SDS011;63025;55.472;38.432;2024-03-02T03:35:13;112.50;;;48.78;;
74551;SDS011;63025;55.472;38.432;2024-03-02T03:37:44;117.43;;;46.35;;
74551;SDS011;63025;55.472;38.432;2024-03-02T03:40:10;119.90;;;46.92;;
74551;SDS011;63025;55.472;38.432;2024-03-02T03:42:36;108.88;;;46.72;;
74551;SDS011;63025;55.472;38.432;2024-03-02T03:45:05;108.82;;;47.70;;
74551;SDS011;63025;55.472;38.432;2024-03-02T03:47:32;102.22;;;45.55;;
74551;SDS011;63025;55.472;38.432;2024-03-02T03:49:58;129.02;;;51.50;;
74551;SDS011;63025;55.472;38.432;2024-03-02T03:52:24;120.80;;;50.05;;
74551;SDS011;63025;55.472;38.432;2024-03-02T03:54:50;126.25;;;49.17;;
74551;SDS011;63025;55.472;38.432;2024-03-02T03:57:16;105.45;;;45.38;;
74551;SDS011;63025;55.472;38.432;2024-03-02T03:59:43;104.40;;;46.03;;
74551;SDS011;63025;55.472;38.432;2024-03-02T04:02:10;106.07;;;47.13;;
74551;SDS011;63025;55.472;38.432;2024-03-02T04:04:38;106.78;;;45.38;;
74551;SDS011;63025;55.472;38.432;2024-03-02T04:07:04;108.97;;;44.65;;
74551;SDS011;63025;55.472;38.432;2024-03-02T04:09:30;102.45;;;43.60;;
74551;SDS011;63025;55.472;38.432;2024-03-02T04:11:56;107.70;;;45.13;;
74551;SDS011;63025;55.472;38.432;2024-03-02T04:14:22;101.05;;;43.88;;
74551;SDS011;63025;55.472;38.432;2024-03-02T04:16:47;97.78;;;42.05;;
74551;SDS011;63025;55.472;38.432;2024-03-02T04:19:13;93.20;;;40.60;;
74551;SDS011;63025;55.472;38.432;2024-03-02T04:21:39;88.95;;;40.35;;
74551;SDS011;63025;55.472;38.432;2024-03-02T04:24:05;90.78;;;39.20;;
74551;SDS011;63025;55.472;38.432;2024-03-02T04:26:31;89.72;;;38.30;;
74551;SDS011;63025;55.472;38.432;2024-03-02T04:28:57;88.10;;;41.40;;
74551;SDS011;63025;55.472;38.432;2024-03-02T04:31:22;100.10;;;44.45;;
74551;SDS011;63025;55.472;38.432;2024-03-02T04:33:48;99.60;;;44.70;;
74551;SDS011;63025;55.472;38.432;2024-03-02T04:36:14;102.55;;;44.38;;
74551;SDS011;63025;55.472;38.432;2024-03-02T04:38:40;100.78;;;44.92;;
74551;SDS011;63025;55.472;38.432;2024-03-02T04:41:06;99.50;;;42.92;;
74551;SDS011;63025;55.472;38.432;2024-03-02T04:43:32;88.38;;;41.33;;
74551;SDS011;63025;55.472;38.432;2024-03-02T04:45:59;87.20;;;40.50;;
74551;SDS011;63025;55.472;38.432;2024-03-02T04:48:25;87.30;;;41.97;;
74551;SDS011;63025;55.472;38.432;2024-03-02T04:50:52;92.78;;;42.97;;
74551;SDS011;63025;55.472;38.432;2024-03-02T04:53:17;90.03;;;39.83;;
74551;SDS011;63025;55.472;38.432;2024-03-02T04:55:43;91.15;;;39.75;;
74551;SDS011;63025;55.472;38.432;2024-03-02T04:58:09;87.25;;;40.67;;
74551;SDS011;63025;55.472;38.432;2024-03-02T05:00:35;94.25;;;40.92;;
74551;SDS011;63025;55.472;38.432;2024-03-02T05:03:04;89.32;;;39.55;;
74551;SDS011;63025;55.472;38.432;2024-03-02T05:05:30;89.10;;;40.90;;
74551;SDS011;63025;55.472;38.432;2024-03-02T05:07:55;90.03;;;40.55;;
74551;SDS011;63025;55.472;38.432;2024-03-02T05:10:21;87.07;;;40.80;;
74551;SDS011;63025;55.472;38.432;2024-03-02T05:12:47;79.28;;;38.40;;
74551;SDS011;63025;55.472;38.432;2024-03-02T05:15:22;88.38;;;38.28;;
74551;SDS011;63025;55.472;38.432;2024-03-02T05:17:48;83.00;;;39.15;;
74551;SDS011;63025;55.472;38.432;2024-03-02T05:20:14;88.28;;;39.50;;
74551;SDS011;63025;55.472;38.432;2024-03-02T05:22:40;81.78;;;37.47;;
74551;SDS011;63025;55.472;38.432;2024-03-02T05:25:06;77.75;;;36.78;;
74551;SDS011;63025;55.472;38.432;2024-03-02T05:27:35;81.57;;;37.30;;
74551;SDS011;63025;55.472;38.432;2024-03-02T05:30:01;78.32;;;37.53;;
74551;SDS011;63025;55.472;38.432;2024-03-02T05:32:30;77.90;;;36.95;;
74551;SDS011;63025;55.472;38.432;2024-03-02T05:34:56;76.53;;;36.88;;
74551;SDS011;63025;55.472;38.432;2024-03-02T05:37:22;74.40;;;35.38;;
74551;SDS011;63025;55.472;38.432;2024-03-02T05:39:48;76.28;;;36.60;;
74551;SDS011;63025;55.472;38.432;2024-03-02T05:42:14;74.47;;;36.05;;
74551;SDS011;63025;55.472;38.432;2024-03-02T05:44:42;77.00;;;36.78;;
74551;SDS011;63025;55.472;38.432;2024-03-02T05:47:08;78.70;;;36.95;;
74551;SDS011;63025;55.472;38.432;2024-03-02T05:49:34;80.60;;;37.78;;
74551;SDS011;63025;55.472;38.432;2024-03-02T05:52:00;83.80;;;37.45;;
74551;SDS011;63025;55.472;38.432;2024-03-02T05:54:26;75.57;;;37.80;;
74551;SDS011;63025;55.472;38.432;2024-03-02T05:56:52;72.82;;;36.85;;
74551;SDS011;63025;55.472;38.432;2024-03-02T05:59:18;72.18;;;36.58;;
74551;SDS011;63025;55.472;38.432;2024-03-02T06:01:45;75.60;;;35.78;;
74551;SDS011;63025;55.472;38.432;2024-03-02T06:04:17;79.38;;;37.80;;
74551;SDS011;63025;55.472;38.432;2024-03-02T06:06:43;74.75;;;36.15;;
74551;SDS011;63025;55.472;38.432;2024-03-02T06:09:09;70.72;;;36.80;;
74551;SDS011;63025;55.472;38.432;2024-03-02T06:11:39;75.85;;;37.13;;
74551;SDS011;63025;55.472;38.432;2024-03-02T06:14:06;75.03;;;36.65;;
74551;SDS011;63025;55.472;38.432;2024-03-02T06:16:33;67.00;;;33.33;;
74551;SDS011;63025;55.472;38.432;2024-03-02T06:18:59;70.28;;;34.50;;
74551;SDS011;63025;55.472;38.432;2024-03-02T06:21:26;68.45;;;34.92;;
74551;SDS011;63025;55.472;38.432;2024-03-02T06:23:53;65.70;;;33.97;;
74551;SDS011;63025;55.472;38.432;2024-03-02T06:26:19;67.13;;;33.25;;
74551;SDS011;63025;55.472;38.432;2024-03-02T06:28:46;70.35;;;34.50;;
74551;SDS011;63025;55.472;38.432;2024-03-02T06:31:12;67.22;;;35.88;;
74551;SDS011;63025;55.472;38.432;2024-03-02T06:33:38;76.60;;;38.78;;
74551;SDS011;63025;55.472;38.432;2024-03-02T06:36:05;80.95;;;40.78;;
74551;SDS011;63025;55.472;38.432;2024-03-02T06:38:34;83.80;;;41.10;;
74551;SDS011;63025;55.472;38.432;2024-03-02T06:41:00;75.53;;;39.00;;
74551;SDS011;63025;55.472;38.432;2024-03-02T06:43:26;83.35;;;39.92;;
74551;SDS011;63025;55.472;38.432;2024-03-02T06:45:52;82.32;;;40.38;;
74551;SDS011;63025;55.472;38.432;2024-03-02T06:48:18;78.15;;;39.28;;
74551;SDS011;63025;55.472;38.432;2024-03-02T06:50:48;72.82;;;37.33;;
74551;SDS011;63025;55.472;38.432;2024-03-02T06:53:15;82.70;;;40.03;;
74551;SDS011;63025;55.472;38.432;2024-03-02T06:55:43;81.80;;;38.75;;
74551;SDS011;63025;55.472;38.432;2024-03-02T06:58:13;88.38;;;39.88;;
74551;SDS011;63025;55.472;38.432;2024-03-02T07:00:42;84.00;;;40.08;;
74551;SDS011;63025;55.472;38.432;2024-03-02T07:03:09;87.85;;;40.80;;
74551;SDS011;63025;55.472;38.432;2024-03-02T07:05:36;79.43;;;38.85;;
74551;SDS011;63025;55.472;38.432;2024-03-02T07:08:01;78.85;;;38.25;;
74551;SDS011;63025;55.472;38.432;2024-03-02T07:10:29;75.97;;;38.40;;
74551;SDS011;63025;55.472;38.432;2024-03-02T07:12:55;64.65;;;33.70;;
74551;SDS011;63025;55.472;38.432;2024-03-02T07:15:20;68.70;;;33.42;;
74551;SDS011;63025;55.472;38.432;2024-03-02T07:17:52;70.72;;;34.33;;
74551;SDS011;63025;55.472;38.432;2024-03-02T07:20:18;68.57;;;34.22;;
74551;SDS011;63025;55.472;38.432;2024-03-02T07:22:44;74.10;;;36.33;;
74551;SDS011;63025;55.472;38.432;2024-03-02T07:25:10;69.93;;;33.65;;
74551;SDS011;63025;55.472;38.432;2024-03-02T07:27:36;59.92;;;33.35;;
74551;SDS011;63025;55.472;38.432;2024-03-02T07:30:02;61.10;;;33.58;;
74551;SDS011;63025;55.472;38.432;2024-03-02T07:32:30;62.05;;;32.10;;
74551;SDS011;63025;55.472;38.432;2024-03-02T07:34:56;69.93;;;36.08;;
74551;SDS011;63025;55.472;38.432;2024-03-02T07:37:22;61.17;;;31.77;;
74551;SDS011;63025;55.472;38.432;2024-03-02T07:39:49;71.47;;;35.60;;
74551;SDS011;63025;55.472;38.432;2024-03-02T07:42:15;71.40;;;36.75;;
74551;SDS011;63025;55.472;38.432;2024-03-02T07:44:41;72.10;;;36.78;;
74551;SDS011;63025;55.472;38.432;2024-03-02T07:47:09;64.40;;;35.67;;
74551;SDS011;63025;55.472;38.432;2024-03-02T07:49:35;60.90;;;33.67;;
74551;SDS011;63025;55.472;38.432;2024-03-02T07:52:01;67.22;;;34.55;;
74551;SDS011;63025;55.472;38.432;2024-03-02T07:54:27;62.10;;;33.15;;
74551;SDS011;63025;55.472;38.432;2024-03-02T07:56:53;56.50;;;32.75;;
74551;SDS011;63025;55.472;38.432;2024-03-02T07:59:19;56.53;;;30.98;;
74551;SDS011;63025;55.472;38.432;2024-03-02T08:01:46;51.30;;;30.52;;
74551;SDS011;63025;55.472;38.432;2024-03-02T08:04:12;51.78;;;30.08;;
74551;SDS011;63025;55.472;38.432;2024-03-02T08:06:38;53.47;;;30.55;;
74551;SDS011;63025;55.472;38.432;2024-03-02T08:09:03;55.33;;;30.58;;
74551;SDS011;63025;55.472;38.432;2024-03-02T08:11:34;56.58;;;29.15;;
74551;SDS011;63025;55.472;38.432;2024-03-02T08:14:00;51.72;;;29.20;;
74551;SDS011;63025;55.472;38.432;2024-03-02T08:16:26;51.78;;;27.75;;
74551;SDS011;63025;55.472;38.432;2024-03-02T08:18:52;43.28;;;24.80;;
74551;SDS011;63025;55.472;38.432;2024-03-02T08:21:19;40.78;;;23.88;;
74551;SDS011;63025;55.472;38.432;2024-03-02T08:23:45;47.60;;;24.02;;
74551;SDS011;63025;55.472;38.432;2024-03-02T08:26:11;43.58;;;24.10;;
74551;SDS011;63025;55.472;38.432;2024-03-02T08:28:37;36.90;;;23.10;;
74551;SDS011;63025;55.472;38.432;2024-03-02T08:31:06;39.47;;;21.70;;
74551;SDS011;63025;55.472;38.432;2024-03-02T08:33:32;48.85;;;24.88;;
74551;SDS011;63025;55.472;38.432;2024-03-02T08:35:59;44.85;;;24.92;;
74551;SDS011;63025;55.472;38.432;2024-03-02T08:38:25;43.83;;;23.98;;
74551;SDS011;63025;55.472;38.432;2024-03-02T08:40:52;43.25;;;22.20;;
74551;SDS011;63025;55.472;38.432;2024-03-02T08:43:19;44.55;;;22.88;;
74551;SDS011;63025;55.472;38.432;2024-03-02T08:45:45;42.20;;;23.20;;
74551;SDS011;63025;55.472;38.432;2024-03-02T08:48:12;45.28;;;25.08;;
74551;SDS011;63025;55.472;38.432;2024-03-02T08:50:38;43.05;;;25.42;;
74551;SDS011;63025;55.472;38.432;2024-03-02T08:53:04;46.28;;;22.60;;
74551;SDS011;63025;55.472;38.432;2024-03-02T08:55:30;38.60;;;22.63;;
74551;SDS011;63025;55.472;38.432;2024-03-02T08:57:56;38.85;;;22.80;;
74551;SDS011;63025;55.472;38.432;2024-03-02T09:00:22;45.75;;;26.00;;
74551;SDS011;63025;55.472;38.432;2024-03-02T09:02:48;42.90;;;25.42;;
74551;SDS011;63025;55.472;38.432;2024-03-02T09:05:14;41.50;;;24.95;;
74551;SDS011;63025;55.472;38.432;2024-03-02T09:07:40;43.47;;;24.85;;
74551;SDS011;63025;55.472;38.432;2024-03-02T09:10:07;40.15;;;24.77;;
74551;SDS011;63025;55.472;38.432;2024-03-02T09:12:34;37.80;;;22.08;;
74551;SDS011;63025;55.472;38.432;2024-03-02T09:15:01;37.92;;;21.58;;
74551;SDS011;63025;55.472;38.432;2024-03-02T09:17:31;40.92;;;23.98;;
74551;SDS011;63025;55.472;38.432;2024-03-02T09:19:57;36.42;;;21.95;;
74551;SDS011;63025;55.472;38.432;2024-03-02T09:22:23;35.90;;;20.27;;
74551;SDS011;63025;55.472;38.432;2024-03-02T09:24:49;34.00;;;20.58;;
74551;SDS011;63025;55.472;38.432;2024-03-02T09:27:15;39.63;;;22.73;;
74551;SDS011;63025;55.472;38.432;2024-03-02T09:29:41;39.03;;;23.13;;
74551;SDS011;63025;55.472;38.432;2024-03-02T09:32:08;38.22;;;20.67;;
74551;SDS011;63025;55.472;38.432;2024-03-02T09:34:37;32.97;;;20.90;;
74551;SDS011;63025;55.472;38.432;2024-03-02T09:37:03;38.53;;;22.58;;
74551;SDS011;63025;55.472;38.432;2024-03-02T09:39:30;40.08;;;22.42;;
74551;SDS011;63025;55.472;38.432;2024-03-02T09:41:56;36.35;;;21.20;;
74551;SDS011;63025;55.472;38.432;2024-03-02T09:44:25;35.85;;;22.45;;
74551;SDS011;63025;55.472;38.432;2024-03-02T09:46:51;41.25;;;23.30;;
74551;SDS011;63025;55.472;38.432;2024-03-02T09:49:18;37.17;;;22.83;;
74551;SDS011;63025;55.472;38.432;2024-03-02T09:51:47;34.95;;;21.95;;
74551;SDS011;63025;55.472;38.432;2024-03-02T09:54:17;35.90;;;21.35;;
74551;SDS011;63025;55.472;38.432;2024-03-02T09:56:44;33.17;;;20.85;;
74551;SDS011;63025;55.472;38.432;2024-03-02T09:59:10;32.90;;;20.08;;
74551;SDS011;63025;55.472;38.432;2024-03-02T10:01:37;32.65;;;20.45;;
74551;SDS011;63025;55.472;38.432;2024-03-02T10:04:03;33.92;;;20.42;;
74551;SDS011;63025;55.472;38.432;2024-03-02T10:06:31;36.22;;;21.60;;
74551;SDS011;63025;55.472;38.432;2024-03-02T10:08:57;34.75;;;21.25;;
74551;SDS011;63025;55.472;38.432;2024-03-02T10:14:04;33.60;;;20.48;;
74551;SDS011;63025;55.472;38.432;2024-03-02T10:16:30;30.63;;;19.10;;
74551;SDS011;63025;55.472;38.432;2024-03-02T10:18:56;29.88;;;19.02;;
74551;SDS011;63025;55.472;38.432;2024-03-02T10:21:22;32.85;;;19.88;;
74551;SDS011;63025;55.472;38.432;2024-03-02T10:23:50;35.30;;;19.90;;
74551;SDS011;63025;55.472;38.432;2024-03-02T10:26:18;30.92;;;20.73;;
74551;SDS011;63025;55.472;38.432;2024-03-02T10:28:47;31.88;;;19.85;;
74551;SDS011;63025;55.472;38.432;2024-03-02T10:31:13;33.10;;;19.90;;
74551;SDS011;63025;55.472;38.432;2024-03-02T10:33:39;37.33;;;21.52;;
74551;SDS011;63025;55.472;38.432;2024-03-02T10:36:06;35.80;;;20.77;;
74551;SDS011;63025;55.472;38.432;2024-03-02T10:38:32;36.67;;;21.15;;
74551;SDS011;63025;55.472;38.432;2024-03-02T10:40:59;33.50;;;21.30;;
74551;SDS011;63025;55.472;38.432;2024-03-02T10:43:25;35.10;;;20.45;;
74551;SDS011;63025;55.472;38.432;2024-03-02T10:45:51;35.33;;;22.38;;
74551;SDS011;63025;55.472;38.432;2024-03-02T10:48:19;40.80;;;23.38;;
74551;SDS011;63025;55.472;38.432;2024-03-02T10:50:46;36.92;;;22.35;;
74551;SDS011;63025;55.472;38.432;2024-03-02T10:53:12;38.85;;;23.15;;
74551;SDS011;63025;55.472;38.432;2024-03-02T10:55:38;35.58;;;21.52;;
74551;SDS011;63025;55.472;38.432;2024-03-02T10:58:04;34.90;;;21.92;;
74551;SDS011;63025;55.472;38.432;2024-03-02T11:00:33;34.05;;;21.50;;
74551;SDS011;63025;55.472;38.432;2024-03-02T11:05:38;36.85;;;21.13;;
74551;SDS011;63025;55.472;38.432;2024-03-02T11:08:11;33.55;;;20.20;;
74551;SDS011;63025;55.472;38.432;2024-03-02T11:10:45;36.50;;;19.90;;
74551;SDS011;63025;55.472;38.432;2024-03-02T11:13:16;36.75;;;20.13;;
74551;SDS011;63025;55.472;38.432;2024-03-02T11:15:54;34.45;;;19.92;;
74551;SDS011;63025;55.472;38.432;2024-03-02T11:18:24;35.25;;;20.38;;
74551;SDS011;63025;55.472;38.432;2024-03-02T11:20:51;37.13;;;20.38;;
74551;SDS011;63025;55.472;38.432;2024-03-02T11:23:18;31.38;;;20.30;;
74551;SDS011;63025;55.472;38.432;2024-03-02T11:25:43;31.40;;;18.40;;
74551;SDS011;63025;55.472;38.432;2024-03-02T11:28:09;32.45;;;18.33;;
74551;SDS011;63025;55.472;38.432;2024-03-02T11:33:03;33.50;;;16.92;;
74551;SDS011;63025;55.472;38.432;2024-03-02T11:35:34;33.65;;;17.70;;
74551;SDS011;63025;55.472;38.432;2024-03-02T11:38:03;32.53;;;17.08;;
74551;SDS011;63025;55.472;38.432;2024-03-02T11:40:30;33.13;;;17.75;;
74551;SDS011;63025;55.472;38.432;2024-03-02T11:42:56;33.35;;;17.15;;
74551;SDS011;63025;55.472;38.432;2024-03-02T11:45:25;29.88;;;18.00;;
74551;SDS011;63025;55.472;38.432;2024-03-02T11:47:55;32.78;;;17.75;;
74551;SDS011;63025;55.472;38.432;2024-03-02T11:53:14;32.60;;;17.67;;
74551;SDS011;63025;55.472;38.432;2024-03-02T11:55:40;34.63;;;17.75;;
74551;SDS011;63025;55.472;38.432;2024-03-02T11:58:07;36.22;;;18.42;;
74551;SDS011;63025;55.472;38.432;2024-03-02T12:00:33;42.50;;;18.63;;
74551;SDS011;63025;55.472;38.432;2024-03-02T12:03:06;30.80;;;17.23;;
74551;SDS011;63025;55.472;38.432;2024-03-02T12:05:34;34.88;;;18.02;;
74551;SDS011;63025;55.472;38.432;2024-03-02T12:08:02;34.63;;;19.13;;
74551;SDS011;63025;55.472;38.432;2024-03-02T12:10:29;40.03;;;19.77;;
74551;SDS011;63025;55.472;38.432;2024-03-02T12:13:03;37.40;;;18.85;;
74551;SDS011;63025;55.472;38.432;2024-03-02T12:15:32;44.60;;;20.42;;
74551;SDS011;63025;55.472;38.432;2024-03-02T12:18:00;32.60;;;19.08;;
74551;SDS011;63025;55.472;38.432;2024-03-02T12:20:27;38.17;;;18.58;;
74551;SDS011;63025;55.472;38.432;2024-03-02T12:22:59;37.85;;;19.75;;
74551;SDS011;63025;55.472;38.432;2024-03-02T12:25:26;36.67;;;19.15;;
74551;SDS011;63025;55.472;38.432;2024-03-02T12:27:56;38.72;;;20.20;;
74551;SDS011;63025;55.472;38.432;2024-03-02T12:30:23;40.10;;;19.05;;
74551;SDS011;63025;55.472;38.432;2024-03-02T12:32:49;35.75;;;19.85;;
74551;SDS011;63025;55.472;38.432;2024-03-02T12:35:16;41.75;;;20.92;;
74551;SDS011;63025;55.472;38.432;2024-03-02T12:37:47;41.05;;;19.90;;
74551;SDS011;63025;55.472;38.432;2024-03-02T12:40:14;37.35;;;19.58;;
74551;SDS011;63025;55.472;38.432;2024-03-02T12:42:44;36.72;;;19.23;;
74551;SDS011;63025;55.472;38.432;2024-03-02T12:45:12;40.65;;;20.85;;
74551;SDS011;63025;55.472;38.432;2024-03-02T12:47:41;36.55;;;17.75;;
74551;SDS011;63025;55.472;38.432;2024-03-02T12:50:09;38.65;;;19.88;;
74551;SDS011;63025;55.472;38.432;2024-03-02T12:52:35;32.45;;;16.60;;
74551;SDS011;63025;55.472;38.432;2024-03-02T12:55:02;29.25;;;16.02;;
74551;SDS011;63025;55.472;38.432;2024-03-02T12:57:32;30.65;;;16.48;;
74551;SDS011;63025;55.472;38.432;2024-03-02T12:59:58;34.85;;;18.65;;
74551;SDS011;63025;55.472;38.432;2024-03-02T13:02:45;33.83;;;16.70;;
74551;SDS011;63025;55.472;38.432;2024-03-02T13:05:11;31.08;;;16.73;;
74551;SDS011;63025;55.472;38.432;2024-03-02T13:07:37;31.58;;;15.88;;
74551;SDS011;63025;55.472;38.432;2024-03-02T13:10:04;29.05;;;15.70;;
74551;SDS011;63025;55.472;38.432;2024-03-02T13:12:33;31.80;;;14.32;;
74551;SDS011;63025;55.472;38.432;2024-03-02T13:14:59;30.95;;;15.15;;
74551;SDS011;63025;55.472;38.432;2024-03-02T13:17:25;29.58;;;16.05;;
74551;SDS011;63025;55.472;38.432;2024-03-02T13:19:55;24.95;;;14.32;;
74551;SDS011;63025;55.472;38.432;2024-03-02T13:22:21;26.73;;;13.93;;
74551;SDS011;63025;55.472;38.432;2024-03-02T13:24:49;29.63;;;15.82;;
74551;SDS011;63025;55.472;38.432;2024-03-02T13:27:15;35.80;;;16.25;;
74551;SDS011;63025;55.472;38.432;2024-03-02T13:29:45;28.35;;;16.20;;
74551;SDS011;63025;55.472;38.432;2024-03-02T13:32:14;29.67;;;17.48;;
74551;SDS011;63025;55.472;38.432;2024-03-02T13:34:41;34.67;;;18.33;;
74551;SDS011;63025;55.472;38.432;2024-03-02T13:37:08;33.63;;;18.48;;
74551;SDS011;63025;55.472;38.432;2024-03-02T13:39:34;35.45;;;19.42;;
74551;SDS011;63025;55.472;38.432;2024-03-02T13:42:08;47.22;;;20.17;;
74551;SDS011;63025;55.472;38.432;2024-03-02T13:44:36;36.22;;;20.60;;
74551;SDS011;63025;55.472;38.432;2024-03-02T13:47:03;38.65;;;21.00;;
74551;SDS011;63025;55.472;38.432;2024-03-02T13:49:30;38.58;;;20.83;;
74551;SDS011;63025;55.472;38.432;2024-03-02T13:52:01;46.63;;;24.50;;
74551;SDS011;63025;55.472;38.432;2024-03-02T13:54:39;38.47;;;22.77;;
74551;SDS011;63025;55.472;38.432;2024-03-02T13:57:07;44.25;;;22.90;;
74551;SDS011;63025;55.472;38.432;2024-03-02T13:59:34;43.30;;;21.95;;
74551;SDS011;63025;55.472;38.432;2024-03-02T14:02:04;41.15;;;22.08;;
74551;SDS011;63025;55.472;38.432;2024-03-02T14:04:31;38.03;;;21.08;;
74551;SDS011;63025;55.472;38.432;2024-03-02T14:06:58;38.33;;;20.08;;
74551;SDS011;63025;55.472;38.432;2024-03-02T14:09:25;43.65;;;20.45;;
74551;SDS011;63025;55.472;38.432;2024-03-02T14:11:55;42.45;;;21.48;;
74551;SDS011;63025;55.472;38.432;2024-03-02T14:14:22;40.80;;;20.63;;
74551;SDS011;63025;55.472;38.432;2024-03-02T14:16:48;38.72;;;20.58;;
74551;SDS011;63025;55.472;38.432;2024-03-02T14:19:14;41.20;;;20.90;;
74551;SDS011;63025;55.472;38.432;2024-03-02T14:21:40;39.50;;;20.30;;
74551;SDS011;63025;55.472;38.432;2024-03-02T14:24:06;39.25;;;20.92;;